createdAt,value
2018-07-15T00:01:32.722Z,96.70
2018-07-15T00:04:02.381Z,96.90
2018-07-15T00:06:32.808Z,97.10
2018-07-15T00:09:05.917Z,97.30
2018-07-15T00:11:35.572Z,97.40
2018-07-15T00:14:04.799Z,97.50
2018-07-15T00:16:33.511Z,97.60
2018-07-15T00:19:02.896Z,97.80
2018-07-15T00:21:31.828Z,97.90
2018-07-15T00:24:01.495Z,98.00
2018-07-15T00:26:30.425Z,98.00
2018-07-15T00:28:59.343Z,98.10
2018-07-15T00:31:27.913Z,98.50
2018-07-15T00:33:56.447Z,99.30
2018-07-15T00:36:25.364Z,99.50
2018-07-15T00:38:54.270Z,99.80
2018-07-15T00:41:23.057Z,99.90
2018-07-15T00:43:51.641Z,99.90
2018-07-15T00:46:20.397Z,99.90
2018-07-15T00:48:51.403Z,99.90
2018-07-15T00:51:26.671Z,99.90
2018-07-15T00:54:00.036Z,99.90
2018-07-15T00:56:28.984Z,99.90
2018-07-15T00:58:58.565Z,99.90
2018-07-15T01:01:31.015Z,99.90
2018-07-15T01:04:01.443Z,99.90
2018-07-15T01:06:33.541Z,99.90
2018-07-15T01:09:04.993Z,99.90
2018-07-15T01:11:35.921Z,99.90
2018-07-15T01:14:05.742Z,99.90
2018-07-15T01:16:36.471Z,99.90
2018-07-15T01:19:06.369Z,99.90
2018-07-15T01:21:35.000Z,99.90
2018-07-15T01:24:03.840Z,99.90
2018-07-15T01:26:35.078Z,99.90
2018-07-15T01:29:03.613Z,99.90
2018-07-15T01:31:34.080Z,99.90
2018-07-15T01:34:03.289Z,99.90
2018-07-15T01:36:32.018Z,99.90
2018-07-15T01:39:01.915Z,99.90
2018-07-15T01:41:32.180Z,99.90
2018-07-15T01:44:00.962Z,99.90
2018-07-15T01:46:29.502Z,99.90
2018-07-15T01:48:58.065Z,99.90
2018-07-15T01:51:26.998Z,99.90
2018-07-15T01:53:55.612Z,99.90
2018-07-15T01:56:24.207Z,99.90
2018-07-15T01:58:53.605Z,99.90
2018-07-15T02:01:22.875Z,99.90
2018-07-15T02:03:51.805Z,99.90
2018-07-15T02:06:26.691Z,99.90
2018-07-15T02:08:56.424Z,99.90
2018-07-15T02:11:26.145Z,99.90
2018-07-15T02:13:55.363Z,99.90
2018-07-15T02:16:25.164Z,99.90
2018-07-15T02:18:54.961Z,99.90
2018-07-15T02:21:24.592Z,99.90
2018-07-15T02:23:53.474Z,99.90
2018-07-15T02:26:23.280Z,99.90
2018-07-15T02:28:52.620Z,99.90
2018-07-15T02:31:22.113Z,99.90
2018-07-15T02:33:50.901Z,99.90
2018-07-15T02:36:20.148Z,99.90
2018-07-15T02:38:49.379Z,99.90
2018-07-15T02:41:17.921Z,99.90
2018-07-15T02:43:47.631Z,99.90
2018-07-15T02:46:18.121Z,99.90
2018-07-15T02:48:47.530Z,99.90
2018-07-15T02:51:18.209Z,99.90
2018-07-15T02:53:48.086Z,99.90
2018-07-15T02:56:17.675Z,99.90
2018-07-15T02:58:46.672Z,99.90
2018-07-15T03:01:15.762Z,99.90
2018-07-15T03:03:46.300Z,99.90
2018-07-15T03:06:15.273Z,99.90
2018-07-15T03:08:44.710Z,99.90
2018-07-15T03:11:14.541Z,99.90
2018-07-15T03:13:44.244Z,99.90
2018-07-15T03:16:14.090Z,99.90
2018-07-15T03:18:43.673Z,99.90
2018-07-15T03:21:14.816Z,99.90
2018-07-15T03:23:43.896Z,99.90
2018-07-15T03:26:12.954Z,99.90
2018-07-15T03:28:42.134Z,99.90
2018-07-15T03:31:11.694Z,99.90
2018-07-15T03:33:41.560Z,99.90
2018-07-15T03:36:11.141Z,99.90
2018-07-15T03:38:40.818Z,99.90
2018-07-15T03:41:09.520Z,99.90
2018-07-15T03:43:38.058Z,99.90
2018-07-15T03:46:07.321Z,99.90
2018-07-15T03:48:36.173Z,99.90
2018-07-15T03:51:06.193Z,99.90
2018-07-15T03:53:34.673Z,99.90
2018-07-15T03:56:03.196Z,99.90
2018-07-15T03:58:32.034Z,99.90
2018-07-15T04:01:00.560Z,99.90
2018-07-15T04:03:29.072Z,99.90
2018-07-15T04:05:58.214Z,99.90
2018-07-15T04:08:26.737Z,99.90
2018-07-15T04:10:55.437Z,99.90
2018-07-15T04:13:24.343Z,99.90
2018-07-15T04:15:53.704Z,99.90
2018-07-15T04:18:22.242Z,99.90
2018-07-15T04:20:50.746Z,99.90
2018-07-15T04:23:20.115Z,99.90
2018-07-15T04:25:49.378Z,99.90
2018-07-15T04:28:18.199Z,99.90
2018-07-15T04:30:47.043Z,99.90
2018-07-15T04:33:15.885Z,99.90
2018-07-15T04:35:44.744Z,99.90
2018-07-15T04:38:13.836Z,99.90
2018-07-15T04:40:42.353Z,99.90
2018-07-15T04:43:11.198Z,99.90
2018-07-15T04:45:40.408Z,99.90
2018-07-15T04:48:09.237Z,99.90
2018-07-15T04:50:38.066Z,99.90
2018-07-15T04:53:07.212Z,99.90
2018-07-15T04:55:36.409Z,99.90
2018-07-15T04:58:05.241Z,99.90
2018-07-15T05:00:34.093Z,99.90
2018-07-15T05:03:02.919Z,99.90
2018-07-15T05:05:31.558Z,99.90
2018-07-15T05:08:00.110Z,99.90
2018-07-15T05:10:28.982Z,99.90
2018-07-15T05:12:57.848Z,99.90
2018-07-15T05:15:26.680Z,99.90
2018-07-15T05:17:55.927Z,99.90
2018-07-15T05:20:24.834Z,99.90
2018-07-15T05:22:54.488Z,99.90
2018-07-15T05:25:23.001Z,99.90
2018-07-15T05:27:51.884Z,99.90
2018-07-15T05:30:20.442Z,99.90
2018-07-15T05:32:49.565Z,99.90
2018-07-15T05:35:18.835Z,99.90
2018-07-15T05:37:47.411Z,99.90
2018-07-15T05:40:16.542Z,99.90
2018-07-15T05:42:45.861Z,99.90
2018-07-15T05:45:15.330Z,99.90
2018-07-15T05:47:44.192Z,99.90
2018-07-15T05:50:13.418Z,99.90
2018-07-15T05:52:42.274Z,99.90
2018-07-15T05:55:11.450Z,99.90
2018-07-15T05:57:40.288Z,99.90
2018-07-15T06:00:08.959Z,99.90
2018-07-15T06:02:37.561Z,99.90
2018-07-15T06:05:07.474Z,99.90
2018-07-15T06:07:36.006Z,99.90
2018-07-15T06:10:05.374Z,99.90
2018-07-15T06:12:34.204Z,99.90
2018-07-15T06:15:03.053Z,99.90
2018-07-15T06:17:31.583Z,99.90
2018-07-15T06:20:01.456Z,99.90
2018-07-15T06:22:30.041Z,99.90
2018-07-15T06:24:59.194Z,99.90
2018-07-15T06:27:27.803Z,99.90
2018-07-15T06:29:59.138Z,99.90
2018-07-15T06:32:28.118Z,99.90
2018-07-15T06:34:57.595Z,99.90
2018-07-15T06:37:26.455Z,99.90
2018-07-15T06:39:54.985Z,99.90
2018-07-15T06:42:24.259Z,99.90
2018-07-15T06:44:53.138Z,99.90
2018-07-15T06:47:21.961Z,99.90
2018-07-15T06:49:50.569Z,99.90
2018-07-15T06:52:19.156Z,99.90
2018-07-15T06:57:28.666Z,99.90
2018-07-15T06:59:58.255Z,99.90
2018-07-15T07:05:09.491Z,99.90
2018-07-15T07:07:42.926Z,99.90
2018-07-15T07:10:12.267Z,99.90
2018-07-15T07:12:43.317Z,99.90
2018-07-15T07:15:12.316Z,99.90
2018-07-15T07:17:48.000Z,99.90
2018-07-15T07:20:21.344Z,99.90
2018-07-15T07:22:51.660Z,99.90
2018-07-15T07:25:23.103Z,99.90
2018-07-15T07:27:54.245Z,99.90
2018-07-15T07:30:36.000Z,99.90
2018-07-15T07:33:08.689Z,99.90
2018-07-15T07:35:37.331Z,99.90
2018-07-15T07:38:06.102Z,99.90
2018-07-15T07:40:37.481Z,99.90
2018-07-15T07:43:06.815Z,99.90
2018-07-15T07:45:35.743Z,99.90
2018-07-15T07:48:04.951Z,99.90
2018-07-15T07:50:34.119Z,99.90
2018-07-15T07:53:03.121Z,99.90
2018-07-15T07:55:32.748Z,99.90
2018-07-15T07:58:02.371Z,99.90
2018-07-15T08:00:31.247Z,99.90
2018-07-15T08:03:00.290Z,99.90
2018-07-15T08:05:29.862Z,99.90
2018-07-15T08:07:58.353Z,99.90
2018-07-15T08:10:27.490Z,99.90
2018-07-15T08:12:57.474Z,99.90
2018-07-15T08:15:28.720Z,99.90
2018-07-15T08:17:57.260Z,99.90
2018-07-15T08:20:26.625Z,99.90
2018-07-15T08:22:55.481Z,98.70
2018-07-15T08:25:24.097Z,98.90
2018-07-15T08:27:52.618Z,98.90
2018-07-15T08:30:33.218Z,98.60
2018-07-15T08:33:03.291Z,98.00
2018-07-15T08:35:33.079Z,98.00
2018-07-15T08:38:01.497Z,97.40
2018-07-15T08:40:31.695Z,97.30
2018-07-15T08:43:00.129Z,97.70
2018-07-15T08:45:29.268Z,97.00
2018-07-15T08:47:57.907Z,96.60
2018-07-15T08:50:26.506Z,97.00
2018-07-15T08:52:56.337Z,96.40
2018-07-15T08:55:24.913Z,95.60
2018-07-15T08:57:53.760Z,95.10
2018-07-15T09:00:22.809Z,95.70
2018-07-15T09:02:51.957Z,94.90
2018-07-15T09:05:20.561Z,94.70
2018-07-15T09:07:48.837Z,94.80
2018-07-15T09:10:17.769Z,94.80
2018-07-15T09:12:46.292Z,95.10
2018-07-15T09:15:14.716Z,95.10
2018-07-15T09:17:43.814Z,94.80
2018-07-15T09:20:12.069Z,94.40
2018-07-15T09:22:40.690Z,94.20
2018-07-15T09:25:09.034Z,93.80
2018-07-15T09:27:38.287Z,93.00
2018-07-15T09:30:06.871Z,92.60
2018-07-15T09:32:36.412Z,93.10
2018-07-15T09:35:07.629Z,92.50
2018-07-15T09:37:35.871Z,91.70
2018-07-15T09:40:04.145Z,91.50
2018-07-15T09:42:34.030Z,91.00
2018-07-15T09:45:02.611Z,91.10
2018-07-15T09:47:31.809Z,90.70
2018-07-15T09:50:02.097Z,90.70
2018-07-15T09:52:32.475Z,90.50
2018-07-15T09:55:01.967Z,87.90
2018-07-15T09:57:32.391Z,87.20
2018-07-15T10:00:01.947Z,88.20
2018-07-15T10:02:31.200Z,87.00
2018-07-15T10:04:59.806Z,85.90
2018-07-15T10:07:28.124Z,84.60
2018-07-15T10:09:58.022Z,84.70
2018-07-15T10:12:26.614Z,84.00
2018-07-15T10:14:55.774Z,83.60
2018-07-15T10:17:24.037Z,84.00
2018-07-15T10:19:54.513Z,83.50
2018-07-15T10:22:27.331Z,82.00
2018-07-15T10:24:56.106Z,80.90
2018-07-15T10:27:25.997Z,80.00
2018-07-15T10:29:54.306Z,79.10
2018-07-15T10:32:22.973Z,79.40
2018-07-15T10:34:51.301Z,78.80
2018-07-15T10:37:19.625Z,78.00
2018-07-15T10:39:48.776Z,77.40
2018-07-15T10:42:17.386Z,77.90
2018-07-15T10:44:49.682Z,76.30
2018-07-15T10:47:18.888Z,77.00
2018-07-15T10:49:47.478Z,75.50
2018-07-15T10:52:16.966Z,77.20
2018-07-15T10:54:45.591Z,75.80
2018-07-15T10:57:14.272Z,73.90
2018-07-15T10:59:42.987Z,73.70
2018-07-15T11:02:12.358Z,74.50
2018-07-15T11:04:47.402Z,75.70
2018-07-15T11:07:16.718Z,74.30
2018-07-15T11:09:45.056Z,73.90
2018-07-15T11:12:13.658Z,74.40
2018-07-15T11:14:42.019Z,72.60
2018-07-15T11:17:10.734Z,71.90
2018-07-15T11:19:40.309Z,71.70
2018-07-15T11:22:08.529Z,70.60
2018-07-15T11:24:38.140Z,68.60
2018-07-15T11:27:07.638Z,69.60
2018-07-15T11:29:35.936Z,70.40
2018-07-15T11:32:13.225Z,68.90
2018-07-15T11:34:42.571Z,69.40
2018-07-15T11:37:11.366Z,69.50
2018-07-15T11:39:39.670Z,68.90
2018-07-15T11:42:20.202Z,67.80
2018-07-15T11:44:49.672Z,68.30
2018-07-15T11:47:18.929Z,65.90
2018-07-15T11:49:52.268Z,66.20
2018-07-15T11:52:24.037Z,66.30
2018-07-15T11:54:53.477Z,65.90
2018-07-15T11:57:22.262Z,64.30
2018-07-15T11:59:54.839Z,64.70
2018-07-15T12:02:23.440Z,64.20
2018-07-15T12:04:52.025Z,64.10
2018-07-15T12:07:20.647Z,64.50
2018-07-15T12:09:50.490Z,65.20
2018-07-15T12:12:19.093Z,63.80
2018-07-15T12:14:48.099Z,63.90
2018-07-15T12:17:16.682Z,63.30
2018-07-15T12:19:44.948Z,63.70
2018-07-15T12:22:30.915Z,63.10
2018-07-15T12:25:00.976Z,62.20
2018-07-15T12:27:29.580Z,61.60
2018-07-15T12:29:58.021Z,59.60
2018-07-15T12:32:27.829Z,59.80
2018-07-15T12:34:56.321Z,59.90
2018-07-15T12:40:33.526Z,59.50
2018-07-15T12:43:05.324Z,58.50
2018-07-15T12:45:47.074Z,58.20
2018-07-15T12:48:16.963Z,57.70
2018-07-15T12:56:37.240Z,57.90
2018-07-15T12:59:07.429Z,57.70
2018-07-15T13:01:46.892Z,57.20
2018-07-15T13:04:20.459Z,56.50
2018-07-15T13:06:49.953Z,57.10
2018-07-15T13:09:18.823Z,56.40
2018-07-15T13:11:50.376Z,57.20
2018-07-15T13:14:19.206Z,57.10
2018-07-15T13:16:47.513Z,57.90
2018-07-15T13:19:17.735Z,57.80
2018-07-15T13:21:56.266Z,57.30
2018-07-15T13:24:37.428Z,55.40
2018-07-15T13:27:08.614Z,55.60
2018-07-15T13:29:39.278Z,55.70
2018-07-15T13:32:11.585Z,56.20
2018-07-15T13:34:49.594Z,55.10
2018-07-15T13:37:22.386Z,55.00
2018-07-15T13:39:53.465Z,54.80
2018-07-15T13:42:25.617Z,54.70
2018-07-15T13:44:55.859Z,55.70
2018-07-15T13:47:27.938Z,56.10
2018-07-15T13:49:57.374Z,56.80
2018-07-15T13:52:27.666Z,56.90
2018-07-15T13:55:02.108Z,56.80
2018-07-15T13:57:32.334Z,56.20
2018-07-15T14:00:03.748Z,56.20
2018-07-15T14:02:33.681Z,57.10
2018-07-15T14:05:04.321Z,55.80
2018-07-15T14:07:53.692Z,54.20
2018-07-15T14:10:23.932Z,53.40
2018-07-15T14:12:55.371Z,53.80
2018-07-15T14:15:25.185Z,53.60
2018-07-15T14:17:55.629Z,54.50
2018-07-15T14:20:26.218Z,54.50
2018-07-15T14:22:56.030Z,55.40
2018-07-15T14:25:25.810Z,55.90
2018-07-15T14:27:58.774Z,55.20
2018-07-15T14:30:28.649Z,55.70
2018-07-15T14:32:59.022Z,56.20
2018-07-15T14:35:27.884Z,56.10
2018-07-15T14:38:00.218Z,56.00
2018-07-15T14:40:28.738Z,55.60
2018-07-15T14:42:57.461Z,55.40
2018-07-15T14:45:26.045Z,55.10
2018-07-15T14:47:54.953Z,54.00
2018-07-15T14:50:24.097Z,54.10
2018-07-15T14:52:53.019Z,54.20
2018-07-15T14:55:21.599Z,53.20
2018-07-15T14:57:50.199Z,54.00
2018-07-15T15:00:19.389Z,54.20
2018-07-15T15:02:48.416Z,54.00
2018-07-15T15:05:18.545Z,54.80
2018-07-15T15:07:49.044Z,55.40
2018-07-15T15:10:21.198Z,55.10
2018-07-15T15:12:55.248Z,55.00
2018-07-15T15:15:25.207Z,55.00
2018-07-15T15:17:57.576Z,55.40
2018-07-15T15:20:26.599Z,55.00
2018-07-15T15:22:56.043Z,54.30
2018-07-15T15:25:25.891Z,54.40
2018-07-15T15:27:54.168Z,55.20
2018-07-15T15:30:23.610Z,55.50
2018-07-15T15:32:55.851Z,55.30
2018-07-15T15:35:24.155Z,55.20
2018-07-15T15:37:54.509Z,55.20
2018-07-15T15:40:24.426Z,54.90
2018-07-15T15:42:55.908Z,55.40
2018-07-15T15:45:24.967Z,55.20
2018-07-15T15:47:54.715Z,55.00
2018-07-15T15:50:24.853Z,54.90
2018-07-15T15:52:54.614Z,55.90
2018-07-15T15:55:24.109Z,55.60
2018-07-15T15:57:53.443Z,56.70
2018-07-15T16:00:26.468Z,55.80
2018-07-15T16:05:36.543Z,57.30
2018-07-15T16:08:06.126Z,57.30
2018-07-15T16:10:36.841Z,56.80
2018-07-15T16:13:06.286Z,56.70
2018-07-15T16:15:36.098Z,57.00
2018-07-15T16:18:04.782Z,57.30
2018-07-15T16:20:33.369Z,56.40
2018-07-15T16:23:03.384Z,57.00
2018-07-15T16:25:32.778Z,57.10
2018-07-15T16:28:04.873Z,57.90
2018-07-15T16:30:33.189Z,58.60
2018-07-15T16:33:03.020Z,58.10
2018-07-15T16:35:34.184Z,57.90
2018-07-15T16:38:02.618Z,58.10
2018-07-15T16:40:32.893Z,58.60
2018-07-15T16:43:04.844Z,58.70
2018-07-15T16:45:34.439Z,58.50
2018-07-15T16:48:04.217Z,58.00
2018-07-15T16:50:33.825Z,58.70
2018-07-15T16:53:04.889Z,58.50
2018-07-15T16:55:34.302Z,58.50
2018-07-15T16:58:03.617Z,58.70
2018-07-15T17:00:33.419Z,58.40
2018-07-15T17:03:04.004Z,58.30
2018-07-15T17:05:33.454Z,58.30
2018-07-15T17:08:03.290Z,58.70
2018-07-15T17:10:33.410Z,58.20
2018-07-15T17:13:06.681Z,57.80
2018-07-15T17:15:38.335Z,58.10
2018-07-15T17:18:06.949Z,58.60
2018-07-15T17:20:35.257Z,58.60
2018-07-15T17:26:34.738Z,58.40
2018-07-15T17:29:03.339Z,58.40
2018-07-15T17:31:31.573Z,59.00
2018-07-15T17:34:01.847Z,58.70
2018-07-15T17:36:30.919Z,58.50
2018-07-15T17:39:01.238Z,58.30
2018-07-15T17:41:30.414Z,58.00
2018-07-15T17:43:58.731Z,58.10
2018-07-15T17:46:28.053Z,58.60
2018-07-15T17:48:56.682Z,58.60
2018-07-15T17:51:24.958Z,59.00
2018-07-15T17:53:54.638Z,58.70
2018-07-15T17:56:22.901Z,59.00
2018-07-15T17:58:51.670Z,59.00
2018-07-15T18:01:21.233Z,59.10
2018-07-15T18:03:51.483Z,59.30
2018-07-15T18:06:21.806Z,59.40
2018-07-15T18:08:54.982Z,59.50
2018-07-15T18:11:23.602Z,59.80
2018-07-15T18:13:55.704Z,60.00
2018-07-15T18:16:25.871Z,59.60
2018-07-15T18:18:57.991Z,59.90
2018-07-15T18:21:27.094Z,59.70
2018-07-15T18:23:57.884Z,59.70
2018-07-15T18:26:26.672Z,59.10
2018-07-15T18:28:56.061Z,59.50
2018-07-15T18:31:24.349Z,59.40
2018-07-15T18:33:53.226Z,59.70
2018-07-15T18:36:21.829Z,59.80
2018-07-15T18:38:51.022Z,59.70
2018-07-15T18:41:19.928Z,59.70
2018-07-15T18:43:57.265Z,60.20
2018-07-15T18:46:30.766Z,60.60
2018-07-15T18:49:01.559Z,61.00
2018-07-15T18:51:30.877Z,61.60
2018-07-15T18:54:01.402Z,62.10
2018-07-15T18:56:30.191Z,62.30
2018-07-15T18:58:58.828Z,62.80
2018-07-15T19:01:27.752Z,63.00
2018-07-15T19:03:56.385Z,63.60
2018-07-15T19:06:25.023Z,64.00
2018-07-15T19:08:54.153Z,64.50
2018-07-15T19:11:22.855Z,65.00
2018-07-15T19:13:53.551Z,64.70
2018-07-15T19:16:22.358Z,64.30
2018-07-15T19:18:51.984Z,64.60
2018-07-15T19:21:20.286Z,65.00
2018-07-15T19:23:49.670Z,64.60
2018-07-15T19:26:27.954Z,65.20
2018-07-15T19:28:56.604Z,65.30
2018-07-15T19:31:25.241Z,65.40
2018-07-15T19:33:54.841Z,65.70
2018-07-15T19:36:23.729Z,65.50
2018-07-15T19:38:52.331Z,65.70
2018-07-15T19:41:21.182Z,65.50
2018-07-15T19:43:51.039Z,66.00
2018-07-15T19:46:21.111Z,66.40
2018-07-15T19:48:49.394Z,66.70
2018-07-15T19:51:18.191Z,66.60
2018-07-15T19:53:46.429Z,66.90
2018-07-15T19:56:15.990Z,67.00
2018-07-15T19:58:45.446Z,67.10
2018-07-15T20:01:15.694Z,67.30
2018-07-15T20:03:45.177Z,67.50
2018-07-15T20:06:14.572Z,67.10
2018-07-15T20:08:45.449Z,67.00
2018-07-15T20:11:14.088Z,68.30
2018-07-15T20:13:42.383Z,68.20
2018-07-15T20:16:13.211Z,68.60
2018-07-15T20:18:46.619Z,68.70
2018-07-15T20:21:14.939Z,69.20
2018-07-15T20:23:43.757Z,69.20
2018-07-15T20:26:12.530Z,69.10
2018-07-15T20:28:40.829Z,69.60
2018-07-15T20:31:09.110Z,69.60
2018-07-15T20:33:43.278Z,69.10
2018-07-15T20:36:11.719Z,69.30
2018-07-15T20:38:40.237Z,70.10
2018-07-15T20:41:08.948Z,70.00
2018-07-15T20:43:37.437Z,69.50
2018-07-15T20:46:13.446Z,69.70
2018-07-15T20:48:41.716Z,70.10
2018-07-15T20:51:10.338Z,70.30
2018-07-15T20:53:39.531Z,70.40
2018-07-15T20:56:08.084Z,70.30
2018-07-15T20:58:50.674Z,70.40
2018-07-15T21:01:19.056Z,70.70
2018-07-15T21:03:47.493Z,71.00
2018-07-15T21:06:15.783Z,70.80
2018-07-15T21:08:44.630Z,71.10
2018-07-15T21:11:13.836Z,71.40
2018-07-15T21:13:42.381Z,70.30
2018-07-15T21:16:10.921Z,70.90
2018-07-15T21:18:39.497Z,71.60
2018-07-15T21:21:10.178Z,72.10
2018-07-15T21:23:39.072Z,71.70
2018-07-15T21:26:08.351Z,72.00
2018-07-15T21:28:37.649Z,71.90
2018-07-15T21:31:06.164Z,72.00
2018-07-15T21:33:38.069Z,72.00
2018-07-15T21:36:08.893Z,72.00
2018-07-15T21:38:39.773Z,72.00
2018-07-15T21:41:09.058Z,71.80
2018-07-15T21:43:56.581Z,71.90
2018-07-15T21:46:25.149Z,72.30
2018-07-15T21:48:54.334Z,72.30
2018-07-15T21:51:23.908Z,72.40
2018-07-15T21:53:54.409Z,72.80
2018-07-15T21:56:23.582Z,72.70
2018-07-15T22:01:59.379Z,73.00
2018-07-15T22:04:36.012Z,72.70
2018-07-15T22:07:15.942Z,73.20
2018-07-15T22:09:58.443Z,73.50
2018-07-15T22:12:27.601Z,73.80
2018-07-15T22:14:56.413Z,74.60
2018-07-15T22:17:24.909Z,74.40
2018-07-15T22:19:54.097Z,74.60
2018-07-15T22:22:22.915Z,74.80
2018-07-15T22:24:53.220Z,75.30
2018-07-15T22:27:22.741Z,75.60
2018-07-15T22:29:51.257Z,75.60
2018-07-15T22:32:20.084Z,75.70
2018-07-15T22:34:48.575Z,75.90
2018-07-15T22:37:17.054Z,76.00
2018-07-15T22:39:45.903Z,76.40
2018-07-15T22:42:14.392Z,76.80
2018-07-15T22:44:43.234Z,76.80
2018-07-15T22:47:12.091Z,77.20
2018-07-15T22:49:40.573Z,77.50
2018-07-15T22:52:09.083Z,77.60
2018-07-15T22:54:37.581Z,77.90
2018-07-15T22:57:06.469Z,78.00
2018-07-15T22:59:35.346Z,78.40
2018-07-15T23:02:03.835Z,78.70
2018-07-15T23:04:42.801Z,78.90
2018-07-15T23:07:11.343Z,78.90
2018-07-15T23:09:39.970Z,79.60
2018-07-15T23:12:08.478Z,79.70
2018-07-15T23:14:36.996Z,79.70
2018-07-15T23:17:05.482Z,80.30
2018-07-15T23:19:33.957Z,80.60
2018-07-15T23:22:02.445Z,81.30
2018-07-15T23:24:30.955Z,81.40
2018-07-15T23:26:59.445Z,81.50
2018-07-15T23:29:27.933Z,81.40
2018-07-15T23:31:56.412Z,81.70
2018-07-15T23:34:24.897Z,82.00
2018-07-15T23:36:53.698Z,82.00
2018-07-15T23:39:24.250Z,82.50
2018-07-15T23:41:53.098Z,82.70
2018-07-15T23:44:21.581Z,82.70
2018-07-15T23:46:50.418Z,82.60
2018-07-15T23:49:18.964Z,82.90
2018-07-15T23:51:47.789Z,83.30
2018-07-15T23:54:17.143Z,83.80
2018-07-15T23:56:45.997Z,84.20
2018-07-15T23:59:15.437Z,84.50
